Time;durP1;ratioP1;P1;durP2;ratioP2;P2;SDS_P1;SDS_P2;PMS_P1;PMS_P2;Temp;Humidity;BMP_temperature;BMP_pressure;BME280_temperature;BME280_humidity;BME280_pressure;Samples;Min_cycle;Max_cycle;Signal;HPM_P1;HPM_P2
2022/05/31 00:00:40;;;;;;;11.00;3.13;;;20.10;92.80;;;;;;5090613;28;20527;-72
2022/05/31 00:03:08;;;;;;;11.30;3.73;;;20.00;92.90;;;;;;5051580;28;20224;-71
2022/05/31 00:05:35;;;;;;;12.07;3.03;;;20.00;93.00;;;;;;5077316;28;20196;-72
2022/05/31 00:08:02;;;;;;;22.70;3.57;;;20.00;93.10;;;;;;5089187;28;20190;-71
2022/05/31 00:10:29;;;;;;;8.57;3.00;;;20.00;93.00;;;;;;5053274;28;20186;-71
2022/05/31 00:12:55;;;;;;;11.90;3.77;;;20.00;93.20;;;;;;5053185;28;20297;-72
2022/05/31 00:15:22;;;;;;;8.30;2.67;;;19.90;93.30;;;;;;5075548;28;20257;-75
2022/05/31 00:17:49;;;;;;;12.23;3.67;;;19.90;93.40;;;;;;5070055;28;20182;-73
2022/05/31 00:20:16;;;;;;;12.87;3.50;;;19.90;93.50;;;;;;5090873;28;20178;-70
2022/05/31 00:22:47;;;;;;;13.87;3.60;;;19.90;93.80;;;;;;5086277;28;20201;-72
2022/05/31 00:25:15;;;;;;;11.63;3.40;;;20.00;96.10;;;;;;5071441;28;20592;-71
2022/05/31 00:27:42;;;;;;;11.97;3.10;;;20.00;96.50;;;;;;5080779;28;20329;-72
2022/05/31 00:30:11;;;;;;;11.80;3.27;;;20.10;95.80;;;;;;5056109;28;20248;-74
2022/05/31 00:32:41;;;;;;;15.47;3.73;;;20.00;94.80;;;;;;5076334;28;20198;-71
2022/05/31 00:35:21;;;;;;;7.60;2.90;;;20.00;95.30;;;;;;5070268;28;20202;-75
2022/05/31 00:37:48;;;;;;;9.97;3.43;;;20.00;95.40;;;;;;5068185;28;20274;-72
2022/05/31 00:40:17;;;;;;;7.67;2.90;;;20.00;96.60;;;;;;5088377;28;20186;-71
2022/05/31 00:43:10;;;;;;;13.93;3.90;;;20.10;98.00;;;;;;5047659;28;20189;-71
2022/05/31 00:45:57;;;;;;;8.77;3.40;;;20.10;98.20;;;;;;5080292;28;20193;-71
2022/05/31 00:48:35;;;;;;;15.83;3.37;;;20.20;98.10;;;;;;5069744;28;20202;-71
2022/05/31 00:51:14;;;;;;;12.27;3.43;;;20.10;97.80;;;;;;5065873;28;20642;-71
2022/05/31 00:53:51;;;;;;;10.03;3.57;;;20.20;97.80;;;;;;5067764;28;20188;-72
2022/05/31 00:56:22;;;;;;;9.43;3.37;;;20.10;97.80;;;;;;5054416;28;20214;-73
2022/05/31 00:58:58;;;;;;;16.27;3.60;;;20.10;98.10;;;;;;5074808;28;20269;-72
2022/05/31 01:01:27;;;;;;;14.47;3.63;;;20.10;98.10;;;;;;5071939;28;20189;-71
2022/05/31 01:03:55;;;;;;;8.10;3.20;;;20.00;97.50;;;;;;5066740;28;20272;-70
2022/05/31 01:06:21;;;;;;;14.03;3.10;;;19.90;96.90;;;;;;5074495;28;20272;-72
2022/05/31 01:08:49;;;;;;;11.53;3.53;;;19.90;96.80;;;;;;5074279;28;20273;-73
2022/05/31 01:11:24;;;;;;;10.77;2.80;;;19.90;96.30;;;;;;5058330;28;20710;-70
2022/05/31 01:13:50;;;;;;;11.70;3.30;;;19.90;96.10;;;;;;5051977;28;20208;-70
2022/05/31 01:16:17;;;;;;;16.97;3.63;;;19.80;95.90;;;;;;5060011;28;20682;-70
2022/05/31 01:18:43;;;;;;;11.57;3.30;;;19.70;94.70;;;;;;5078132;28;20604;-72
2022/05/31 01:21:10;;;;;;;13.03;3.17;;;19.60;94.50;;;;;;5072553;28;20190;-72
2022/05/31 01:23:55;;;;;;;15.00;3.63;;;19.60;94.60;;;;;;5085357;28;20699;-70
2022/05/31 01:26:39;;;;;;;14.63;3.47;;;19.70;94.60;;;;;;5075814;28;20192;-71
2022/05/31 01:29:17;;;;;;;15.13;3.60;;;19.70;94.20;;;;;;5095560;28;20653;-72
2022/05/31 01:31:50;;;;;;;12.23;3.27;;;19.60;94.10;;;;;;5092659;28;20178;-70
2022/05/31 01:34:58;;;;;;;14.43;3.43;;;19.60;94.30;;;;;;5073179;28;20190;-73
2022/05/31 01:37:55;;;;;;;10.07;3.17;;;19.60;94.20;;;;;;5089331;28;20213;-71
2022/05/31 01:40:55;;;;;;;14.47;3.60;;;19.50;94.30;;;;;;5078087;28;20206;-73
2022/05/31 01:43:22;;;;;;;9.07;2.77;;;19.50;94.50;;;;;;5060145;28;20277;-74
2022/05/31 01:46:01;;;;;;;8.33;3.07;;;19.50;94.50;;;;;;5057369;28;20182;-72
2022/05/31 01:48:31;;;;;;;10.00;2.70;;;19.50;94.50;;;;;;5092422;28;20275;-73
2022/05/31 01:50:58;;;;;;;12.47;3.27;;;19.60;94.50;;;;;;5059834;28;20182;-71
2022/05/31 01:53:25;;;;;;;12.43;3.40;;;19.50;94.60;;;;;;5076291;28;20255;-74
2022/05/31 01:55:52;;;;;;;12.43;3.37;;;19.50;94.60;;;;;;5075595;28;20208;-74
2022/05/31 01:58:27;;;;;;;9.80;3.40;;;19.40;94.70;;;;;;5081687;28;20179;-73
2022/05/31 02:00:54;;;;;;;12.80;3.60;;;19.40;94.70;;;;;;5082222;28;20196;-72
2022/05/31 02:03:22;;;;;;;8.63;2.90;;;19.40;94.80;;;;;;5074019;28;20181;-74
2022/05/31 02:05:52;;;;;;;11.53;3.43;;;19.40;94.90;;;;;;5051400;28;20251;-72
2022/05/31 02:08:23;;;;;;;10.50;3.07;;;19.40;94.80;;;;;;5090070;28;20242;-73
2022/05/31 02:10:50;;;;;;;12.33;3.63;;;19.40;94.80;;;;;;5089044;28;20248;-74
2022/05/31 02:13:18;;;;;;;15.83;3.10;;;19.40;94.90;;;;;;5085770;28;20676;-73
2022/05/31 02:15:45;;;;;;;10.97;3.30;;;19.40;95.00;;;;;;5077875;28;20828;-70
2022/05/31 02:18:13;;;;;;;11.63;3.30;;;19.40;95.20;;;;;;5073043;28;20170;-71
2022/05/31 02:20:40;;;;;;;13.57;3.90;;;19.40;95.30;;;;;;5072462;28;20186;-71
2022/05/31 02:23:06;;;;;;;13.40;3.50;;;19.40;95.30;;;;;;5072108;28;20216;-73
2022/05/31 02:25:36;;;;;;;15.73;3.20;;;19.40;95.30;;;;;;5073930;28;20181;-70
2022/05/31 02:28:03;;;;;;;14.90;3.30;;;19.40;95.30;;;;;;5056408;28;20178;-71
2022/05/31 02:30:29;;;;;;;9.93;3.43;;;19.40;95.40;;;;;;5089770;28;20760;-71
2022/05/31 02:32:56;;;;;;;7.73;2.90;;;19.40;95.50;;;;;;5090732;28;20320;-73
2022/05/31 02:35:23;;;;;;;12.73;3.77;;;19.40;95.70;;;;;;5069346;28;20190;-71
2022/05/31 02:37:52;;;;;;;16.00;3.63;;;19.40;95.20;;;;;;5090301;28;20171;-71
2022/05/31 02:40:20;;;;;;;7.67;2.70;;;19.30;95.20;;;;;;5091935;28;20190;-70
2022/05/31 02:42:46;;;;;;;11.50;2.70;;;19.20;95.30;;;;;;5072970;28;20243;-72
2022/05/31 02:45:12;;;;;;;14.50;4.07;;;19.10;95.20;;;;;;5091252;28;20190;-71
2022/05/31 02:47:40;;;;;;;13.87;3.07;;;19.10;95.60;;;;;;5054425;28;20217;-70
2022/05/31 02:50:08;;;;;;;11.73;3.43;;;19.10;96.30;;;;;;5087702;28;20182;-71
2022/05/31 02:52:34;;;;;;;9.50;3.20;;;19.00;97.30;;;;;;5061154;28;20195;-74
2022/05/31 02:55:01;;;;;;;17.23;3.57;;;19.00;97.70;;;;;;5090845;28;20217;-72
2022/05/31 02:57:27;;;;;;;11.40;3.43;;;19.00;98.00;;;;;;5068733;28;20186;-73
2022/05/31 02:59:53;;;;;;;12.83;2.97;;;19.00;98.70;;;;;;5090864;28;20170;-71
2022/05/31 03:02:19;;;;;;;11.57;3.57;;;19.00;98.70;;;;;;5093356;28;20185;-73
2022/05/31 03:04:45;;;;;;;14.30;3.63;;;19.00;98.90;;;;;;5087617;28;20178;-70
2022/05/31 03:07:12;;;;;;;10.90;3.67;;;19.00;98.70;;;;;;5078485;28;20233;-72
2022/05/31 03:09:38;;;;;;;10.90;3.43;;;19.10;98.90;;;;;;5097225;28;20205;-72
2022/05/31 03:12:15;;;;;;;17.13;3.30;;;19.10;99.10;;;;;;5072575;28;20181;-71
2022/05/31 03:14:53;;;;;;;13.10;4.07;;;19.10;99.30;;;;;;5072873;28;20665;-72
2022/05/31 03:17:30;;;;;;;15.67;4.20;;;19.10;99.80;;;;;;5073864;28;20536;-72
2022/05/31 03:20:08;;;;;;;10.90;3.67;;;19.10;99.90;;;;;;5070361;28;20171;-71
2022/05/31 03:22:54;;;;;;;16.53;3.50;;;19.10;99.90;;;;;;5080209;28;20221;-73
2022/05/31 03:25:26;;;;;;;13.20;4.00;;;19.10;99.90;;;;;;5086025;28;20186;-69
2022/05/31 03:28:02;;;;;;;11.73;3.70;;;19.20;99.90;;;;;;5094006;28;20186;-72
2022/05/31 03:30:36;;;;;;;10.47;3.57;;;19.30;99.90;;;;;;5087133;28;20558;-73
2022/05/31 03:33:07;;;;;;;9.90;3.60;;;19.40;99.90;;;;;;5070869;28;20583;-74
2022/05/31 03:35:37;;;;;;;15.30;3.80;;;19.50;99.90;;;;;;5070731;28;20688;-71
2022/05/31 03:38:04;;;;;;;10.27;4.20;;;19.50;99.90;;;;;;5047320;28;20198;-71
2022/05/31 03:43:15;;;;;;;8.87;3.57;;;19.50;99.90;;;;;;5089501;28;20174;-71
2022/05/31 03:45:44;;;;;;;8.60;3.70;;;19.60;99.90;;;;;;5052969;28;20858;-71
2022/05/31 03:48:12;;;;;;;10.87;3.80;;;19.60;99.90;;;;;;5089002;28;20643;-72
2022/05/31 03:50:40;;;;;;;15.00;3.70;;;19.70;99.90;;;;;;5104843;28;20284;-71
2022/05/31 03:53:10;;;;;;;12.73;4.17;;;19.70;99.90;;;;;;5103905;28;20181;-71
2022/05/31 03:55:40;;;;;;;11.57;4.77;;;19.80;99.90;;;;;;5103130;28;20289;-74
2022/05/31 03:58:07;;;;;;;13.40;4.70;;;19.80;99.90;;;;;;5085527;28;20182;-74
2022/05/31 04:00:35;;;;;;;18.43;4.87;;;19.90;99.90;;;;;;5051257;28;20182;-73
2022/05/31 04:03:01;;;;;;;11.80;4.23;;;19.90;99.90;;;;;;5093030;28;20174;-73
2022/05/31 04:05:28;;;;;;;13.20;4.10;;;20.00;99.90;;;;;;5069699;28;20668;-73
2022/05/31 04:08:02;;;;;;;14.73;4.10;;;20.00;99.90;;;;;;5077490;28;20239;-73
2022/05/31 04:10:30;;;;;;;13.13;4.47;;;20.00;99.90;;;;;;5084699;28;20250;-70
2022/05/31 04:12:57;;;;;;;15.00;4.70;;;20.00;99.90;;;;;;5074008;28;20232;-72
2022/05/31 04:15:23;;;;;;;12.63;4.33;;;20.00;99.90;;;;;;5034029;28;20260;-73
2022/05/31 04:17:50;;;;;;;13.43;5.10;;;20.10;99.90;;;;;;5068544;28;20343;-73
2022/05/31 04:20:16;;;;;;;16.53;4.77;;;20.10;99.90;;;;;;5070667;28;20189;-72
2022/05/31 04:22:42;;;;;;;9.83;4.13;;;20.10;99.90;;;;;;5087416;28;20196;-72
2022/05/31 04:25:09;;;;;;;12.43;4.10;;;20.20;99.90;;;;;;5052479;28;20216;-71
2022/05/31 04:27:39;;;;;;;17.57;5.07;;;20.20;99.90;;;;;;5072249;28;20229;-73
2022/05/31 04:30:07;;;;;;;13.60;4.80;;;20.30;99.90;;;;;;5069585;28;20271;-72
2022/05/31 04:32:33;;;;;;;11.90;5.00;;;20.40;99.90;;;;;;5088351;28;20186;-71
2022/05/31 04:34:59;;;;;;;12.77;5.00;;;20.50;99.90;;;;;;5066009;28;20293;-74
2022/05/31 04:37:28;;;;;;;16.23;5.60;;;20.60;99.90;;;;;;5053954;28;20191;-72
2022/05/31 04:39:55;;;;;;;13.13;5.00;;;20.70;99.90;;;;;;5076969;28;20182;-74
2022/05/31 04:42:21;;;;;;;15.03;5.23;;;20.80;99.90;;;;;;5069893;28;20197;-73
2022/05/31 04:44:47;;;;;;;8.47;4.90;;;20.90;99.90;;;;;;5088198;28;20197;-72
2022/05/31 04:47:14;;;;;;;11.37;5.10;;;20.90;99.90;;;;;;5082037;28;20920;-71
2022/05/31 04:49:40;;;;;;;7.20;4.70;;;20.90;99.90;;;;;;5083869;28;20185;-71
2022/05/31 04:52:06;;;;;;;11.10;5.10;;;21.00;99.90;;;;;;5088076;28;20619;-72
2022/05/31 04:54:32;;;;;;;12.80;5.27;;;21.10;99.90;;;;;;5069558;28;20210;-73
2022/05/31 04:57:00;;;;;;;19.07;5.50;;;21.10;99.90;;;;;;5076039;28;20210;-71
2022/05/31 04:59:27;;;;;;;13.70;5.00;;;21.20;99.90;;;;;;5062600;28;20195;-72
2022/05/31 05:01:53;;;;;;;15.77;5.67;;;21.30;99.90;;;;;;5055829;28;20187;-72
2022/05/31 05:04:20;;;;;;;13.50;5.20;;;21.30;99.90;;;;;;5074714;28;20185;-72
2022/05/31 05:06:46;;;;;;;18.47;5.30;;;21.40;99.90;;;;;;5039203;28;20590;-71
2022/05/31 05:09:13;;;;;;;10.13;5.07;;;21.40;99.90;;;;;;5064721;28;20194;-73
2022/05/31 05:11:39;;;;;;;19.00;5.60;;;21.50;99.90;;;;;;5063620;28;20337;-72
2022/05/31 05:14:07;;;;;;;17.20;5.00;;;21.50;99.90;;;;;;5071494;28;20863;-73
2022/05/31 05:16:33;;;;;;;20.67;5.17;;;21.60;99.90;;;;;;5074553;28;20217;-71
2022/05/31 05:18:59;;;;;;;10.03;4.73;;;21.60;99.90;;;;;;5069478;28;20627;-71
2022/05/31 05:21:26;;;;;;;10.50;4.50;;;21.70;99.90;;;;;;5069561;28;20174;-70
2022/05/31 05:23:53;;;;;;;12.23;4.87;;;21.70;99.90;;;;;;5053429;28;20181;-73
2022/05/31 05:26:19;;;;;;;14.00;5.03;;;21.80;99.90;;;;;;5053783;28;20649;-73
2022/05/31 05:31:35;;;;;;;11.97;5.17;;;21.90;99.90;;;;;;5086080;28;20206;-71
2022/05/31 05:34:03;;;;;;;18.57;5.63;;;22.00;99.90;;;;;;5049984;28;20190;-70
2022/05/31 05:36:31;;;;;;;16.43;6.13;;;22.10;99.90;;;;;;5083850;28;20232;-72
2022/05/31 05:38:58;;;;;;;20.37;5.83;;;22.20;99.90;;;;;;5049655;28;20288;-73
2022/05/31 05:41:28;;;;;;;16.73;5.67;;;22.30;99.90;;;;;;5084864;28;20446;-70
2022/05/31 05:43:56;;;;;;;16.17;6.23;;;22.30;99.90;;;;;;5053602;28;20883;-71
2022/05/31 05:46:28;;;;;;;20.50;6.07;;;22.40;99.90;;;;;;5059714;28;20224;-70
2022/05/31 05:48:55;;;;;;;19.17;6.23;;;22.40;99.90;;;;;;5081412;28;20186;-72
2022/05/31 05:51:28;;;;;;;16.27;5.57;;;22.50;99.90;;;;;;5071343;28;20182;-72
2022/05/31 05:53:56;;;;;;;13.40;5.83;;;22.60;99.90;;;;;;5073889;28;20198;-71
2022/05/31 05:56:23;;;;;;;17.23;5.73;;;22.60;99.90;;;;;;5092506;28;20214;-72
2022/05/31 05:58:50;;;;;;;12.40;5.97;;;22.70;99.90;;;;;;5065176;28;20186;-72
2022/05/31 06:01:46;;;;;;;16.17;5.87;;;22.70;99.90;;;;;;5051857;28;20274;-72
2022/05/31 06:04:40;;;;;;;16.80;5.87;;;22.80;99.90;;;;;;5068565;28;20185;-72
2022/05/31 06:07:14;;;;;;;17.43;6.47;;;22.80;99.90;;;;;;5089694;28;20193;-72
2022/05/31 06:09:50;;;;;;;14.47;5.50;;;22.90;99.90;;;;;;5073123;28;20230;-72
2022/05/31 06:12:24;;;;;;;13.43;5.53;;;23.00;99.90;;;;;;5064006;28;20222;-71
2022/05/31 06:15:05;;;;;;;9.53;4.70;;;23.10;99.90;;;;;;5079980;28;21031;-72
2022/05/31 06:17:42;;;;;;;11.17;4.93;;;23.10;99.90;;;;;;5055474;28;20190;-72
2022/05/31 06:20:10;;;;;;;18.23;5.77;;;23.20;99.90;;;;;;5092138;28;20208;-71
2022/05/31 06:22:40;;;;;;;16.23;5.53;;;23.30;99.90;;;;;;5059329;28;20196;-72
2022/05/31 06:25:11;;;;;;;13.40;5.30;;;23.30;99.90;;;;;;5073250;28;20538;-72
2022/05/31 06:27:37;;;;;;;18.50;5.33;;;23.30;99.90;;;;;;5086983;28;20185;-73
2022/05/31 06:30:04;;;;;;;13.50;5.85;;;23.40;99.90;;;;;;5092924;27;20637;-75
2022/05/31 06:32:32;;;;;;;9.70;4.67;;;23.50;99.90;;;;;;5054395;28;20527;-72
2022/05/31 06:34:59;;;;;;;10.47;5.07;;;23.60;99.90;;;;;;5049140;28;20182;-72
2022/05/31 06:37:28;;;;;;;15.17;5.43;;;23.70;99.90;;;;;;5096928;28;20201;-74
2022/05/31 06:39:55;;;;;;;23.05;5.18;;;23.80;99.90;;;;;;5059364;28;20184;-76
2022/05/31 06:42:22;;;;;;;19.33;5.47;;;23.90;99.90;;;;;;5063462;28;20261;-71
2022/05/31 06:44:48;;;;;;;12.85;5.20;;;23.90;99.90;;;;;;5065784;28;20187;-75
2022/05/31 06:47:15;;;;;;;13.77;4.88;;;24.00;99.90;;;;;;5082591;28;20190;-74
2022/05/31 06:49:42;;;;;;;9.40;4.75;;;24.10;99.90;;;;;;5051170;28;20186;-74
2022/05/31 06:57:47;;;;;;;14.65;5.22;;;24.30;99.90;;;;;;5085221;28;20178;-77
2022/05/31 07:00:21;;;;;;;15.40;5.38;;;24.40;99.90;;;;;;5078670;28;20253;-73
2022/05/31 07:02:49;;;;;;;16.65;5.30;;;24.40;99.90;;;;;;5069070;28;20611;-72
2022/05/31 07:05:17;;;;;;;20.73;5.88;;;24.50;99.90;;;;;;5064331;28;20191;-72
2022/05/31 07:07:44;;;;;;;18.67;5.70;;;24.60;99.90;;;;;;5084122;28;20251;-74
2022/05/31 07:10:13;;;;;;;18.13;6.53;;;24.60;99.90;;;;;;5066660;28;20190;-74
2022/05/31 07:12:41;;;;;;;14.60;5.65;;;24.70;99.90;;;;;;5100505;28;20245;-72
2022/05/31 07:15:09;;;;;;;16.10;5.82;;;24.70;99.90;;;;;;5062161;28;20209;-74
2022/05/31 07:17:37;;;;;;;19.00;5.65;;;24.70;99.90;;;;;;5086395;28;20189;-74
2022/05/31 07:20:05;;;;;;;19.67;5.53;;;24.80;99.90;;;;;;5071879;28;20231;-74
2022/05/31 07:22:33;;;;;;;19.45;5.55;;;24.90;99.90;;;;;;5048546;28;20253;-73
2022/05/31 07:24:59;;;;;;;16.65;4.97;;;24.90;99.90;;;;;;5063522;28;20183;-73
2022/05/31 07:27:26;;;;;;;18.50;5.10;;;24.90;99.90;;;;;;5064077;28;20251;-73
2022/05/31 07:29:52;;;;;;;17.83;5.85;;;25.00;99.90;;;;;;5075764;28;20198;-72
2022/05/31 07:32:22;;;;;;;20.77;6.57;;;25.10;99.90;;;;;;5059281;28;20182;-77
2022/05/31 07:34:51;;;;;;;27.23;5.70;;;25.10;99.90;;;;;;5054999;28;20650;-74
2022/05/31 07:37:18;;;;;;;18.58;5.18;;;25.20;99.90;;;;;;5082033;28;20204;-72
2022/05/31 07:39:48;;;;;;;13.68;5.75;;;25.20;99.90;;;;;;5070938;28;20190;-72
2022/05/31 07:42:15;;;;;;;16.40;5.80;;;25.30;99.90;;;;;;5072731;28;20187;-71
2022/05/31 07:44:41;;;;;;;18.75;5.95;;;25.30;99.90;;;;;;5082949;28;20175;-74
2022/05/31 07:47:08;;;;;;;17.67;5.75;;;25.50;99.90;;;;;;5076235;28;20187;-73
2022/05/31 07:49:37;;;;;;;15.82;5.70;;;25.50;99.90;;;;;;5092828;28;20609;-72
2022/05/31 07:52:09;;;;;;;19.00;5.53;;;25.50;99.90;;;;;;5063863;28;20643;-71
2022/05/31 07:54:36;;;;;;;21.25;5.60;;;25.60;99.90;;;;;;5044496;28;20201;-73
2022/05/31 07:57:07;;;;;;;11.43;5.38;;;25.70;99.90;;;;;;5073631;28;20214;-71
2022/05/31 07:59:35;;;;;;;19.65;5.80;;;25.70;99.90;;;;;;5066110;28;20175;-72
2022/05/31 08:02:03;;;;;;;22.13;6.05;;;25.70;99.90;;;;;;5084589;28;20369;-74
2022/05/31 08:04:33;;;;;;;19.58;5.93;;;25.80;99.90;;;;;;5094355;28;20655;-76
2022/05/31 08:07:00;;;;;;;18.08;6.38;;;25.90;99.90;;;;;;5073762;28;20251;-72
2022/05/31 08:09:27;;;;;;;19.00;5.70;;;26.00;99.90;;;;;;5088626;28;20189;-73
2022/05/31 08:11:57;;;;;;;14.10;5.82;;;26.00;99.90;;;;;;5060560;28;20193;-71
2022/05/31 08:14:24;;;;;;;22.45;6.03;;;26.00;99.90;;;;;;5069713;28;20185;-72
2022/05/31 08:16:53;;;;;;;12.13;5.30;;;26.10;99.90;;;;;;5082135;28;20324;-71
2022/05/31 08:19:19;;;;;;;20.25;6.35;;;26.10;99.90;;;;;;5087000;28;20706;-74
2022/05/31 08:21:46;;;;;;;20.15;5.47;;;26.20;99.90;;;;;;5071158;28;20235;-73
2022/05/31 08:24:13;;;;;;;17.48;5.30;;;26.20;99.90;;;;;;5069815;28;20190;-74
2022/05/31 08:26:40;;;;;;;25.63;6.72;;;26.30;99.90;;;;;;5051119;28;20185;-74
2022/05/31 08:29:06;;;;;;;22.58;5.72;;;26.30;99.90;;;;;;5066448;28;20193;-71
2022/05/31 08:31:36;;;;;;;16.52;5.30;;;26.40;99.90;;;;;;5084484;28;20724;-73
2022/05/31 08:34:05;;;;;;;20.67;5.85;;;26.40;99.90;;;;;;5087369;28;20198;-73
2022/05/31 08:36:32;;;;;;;22.80;6.05;;;26.50;99.90;;;;;;5055116;28;20204;-73
2022/05/31 08:39:00;;;;;;;19.98;5.65;;;26.50;99.90;;;;;;5071542;28;20182;-73
2022/05/31 08:41:42;;;;;;;17.02;5.15;;;26.60;99.90;;;;;;5051568;28;20239;-76
2022/05/31 08:45:03;;;;;;;19.98;5.22;;;26.70;99.90;;;;;;5069656;28;20213;-74
2022/05/31 08:47:46;;;;;;;15.98;5.15;;;26.70;99.90;;;;;;5027336;28;20193;-73
2022/05/31 08:53:35;;;;;;;15.30;5.25;;;26.80;99.90;;;;;;5096328;28;20214;-73
2022/05/31 08:59:52;;;;;;;20.42;5.13;;;26.90;99.90;;;;;;5098153;28;20185;-74
2022/05/31 09:02:30;;;;;;;20.02;5.10;;;27.00;99.90;;;;;;5019124;28;20194;-75
2022/05/31 09:05:13;;;;;;;18.70;4.78;;;27.20;99.90;;;;;;5081611;28;20186;-77
2022/05/31 09:08:09;;;;;;;20.00;5.10;;;27.20;99.90;;;;;;5069146;28;20198;-75
2022/05/31 09:10:46;;;;;;;15.48;5.32;;;27.30;99.90;;;;;;5078171;28;20717;-72
2022/05/31 09:13:50;;;;;;;18.58;5.05;;;27.20;99.90;;;;;;5076687;28;20205;-74
2022/05/31 09:16:43;;;;;;;15.52;4.53;;;27.30;99.90;;;;;;5085704;28;20210;-75
2022/05/31 09:19:20;;;;;;;18.42;4.55;;;27.50;99.90;;;;;;5061456;28;20186;-77
2022/05/31 09:21:50;;;;;;;22.90;4.43;;;27.50;99.90;;;;;;5065574;28;20198;-74
2022/05/31 09:24:22;;;;;;;20.73;4.65;;;27.50;99.90;;;;;;5079702;28;20236;-73
2022/05/31 09:27:09;;;;;;;20.90;5.18;;;27.50;99.90;;;;;;5089981;28;20247;-73
2022/05/31 09:30:01;;;;;;;18.77;4.82;;;27.60;99.90;;;;;;5074245;28;20186;-74
2022/05/31 09:33:22;;;;;;;17.48;4.90;;;27.70;99.90;;;;;;5061469;28;20654;-72
2022/05/31 09:36:30;;;;;;;18.17;4.60;;;27.70;99.90;;;;;;5070231;28;21529;-76
2022/05/31 09:39:24;;;;;;;19.90;5.03;;;27.90;99.90;;;;;;5082118;28;20174;-74
2022/05/31 09:42:23;;;;;;;21.30;4.85;;;28.00;99.90;;;;;;5056739;28;20186;-77
2022/05/31 09:45:17;;;;;;;15.25;5.07;;;28.10;99.90;;;;;;5059298;28;20215;-72
2022/05/31 09:47:44;;;;;;;14.60;4.55;;;28.10;99.90;;;;;;5076799;28;20186;-72
2022/05/31 09:50:10;;;;;;;21.13;4.78;;;28.30;99.90;;;;;;5085487;28;20357;-74
2022/05/31 09:52:47;;;;;;;20.90;4.50;;;28.20;99.90;;;;;;5067679;28;20182;-76
2022/05/31 09:58:09;;;;;;;15.13;4.80;;;28.30;99.90;;;;;;5097450;28;20557;-77
2022/05/31 10:00:56;;;;;;;14.20;4.30;;;28.30;99.90;;;;;;5091803;28;20194;-73
2022/05/31 10:03:51;;;;;;;20.27;4.45;;;28.30;99.90;;;;;;5071323;28;20178;-73
2022/05/31 10:06:22;;;;;;;18.60;5.03;;;28.40;99.90;;;;;;5098505;27;20559;-73
2022/05/31 10:08:54;;;;;;;25.50;4.95;;;28.30;99.90;;;;;;5083666;28;20194;-72
2022/05/31 10:11:31;;;;;;;16.15;4.00;;;28.40;99.90;;;;;;5088025;28;20323;-76
2022/05/31 10:14:07;;;;;;;15.43;4.55;;;28.40;99.90;;;;;;5073116;28;20205;-74
2022/05/31 10:16:37;;;;;;;18.35;4.95;;;28.50;99.90;;;;;;5072017;28;20216;-74
2022/05/31 10:19:24;;;;;;;19.40;4.60;;;28.60;99.90;;;;;;5086993;28;20717;-78
2022/05/31 10:21:51;;;;;;;17.80;4.70;;;28.50;99.90;;;;;;5069718;28;20221;-74
2022/05/31 10:24:22;;;;;;;17.75;4.78;;;28.60;99.90;;;;;;5087579;28;20179;-75
2022/05/31 10:27:28;;;;;;;22.00;4.85;;;28.60;99.90;;;;;;5071189;28;20551;-75
2022/05/31 10:30:09;;;;;;;16.23;4.30;;;28.50;99.90;;;;;;5014371;28;20184;-75
2022/05/31 10:32:51;;;;;;;22.42;4.50;;;28.60;99.90;;;;;;5034976;28;20200;-73
2022/05/31 10:35:31;;;;;;;18.58;3.90;;;28.50;99.90;;;;;;5037396;28;20209;-73
2022/05/31 10:38:29;;;;;;;17.48;4.60;;;28.40;99.90;;;;;;5081856;28;20253;-74
2022/05/31 10:41:07;;;;;;;19.02;4.60;;;28.40;99.90;;;;;;5090725;28;20188;-73
2022/05/31 10:44:21;;;;;;;12.82;4.18;;;28.50;99.90;;;;;;5085742;28;20182;-76
2022/05/31 10:46:55;;;;;;;21.38;4.65;;;28.40;99.90;;;;;;5084349;28;20511;-75
2022/05/31 10:49:23;;;;;;;17.65;4.78;;;28.50;99.90;;;;;;5082091;28;20214;-71
2022/05/31 10:52:41;;;;;;;17.55;4.88;;;28.50;99.90;;;;;;5061953;28;20217;-76
2022/05/31 10:55:41;;;;;;;18.05;4.43;;;28.50;99.90;;;;;;5050334;28;20198;-74
2022/05/31 10:58:41;;;;;;;19.75;4.35;;;28.40;99.90;;;;;;5056180;28;20175;-75
2022/05/31 11:01:23;;;;;;;14.77;3.72;;;28.40;99.90;;;;;;5084959;28;20186;-74
2022/05/31 11:04:21;;;;;;;21.00;4.20;;;28.40;99.90;;;;;;5067690;28;20194;-72
2022/05/31 11:07:22;;;;;;;20.48;4.38;;;28.40;99.90;;;;;;5054933;28;20251;-73
2022/05/31 11:13:12;;;;;;;22.63;4.95;;;28.30;99.90;;;;;;5094134;27;20232;-74
2022/05/31 11:16:17;;;;;;;10.80;3.60;;;28.30;99.90;;;;;;5079759;28;20214;-72
2022/05/31 11:19:07;;;;;;;17.83;4.30;;;28.40;99.90;;;;;;5072487;28;20201;-72
2022/05/31 11:22:21;;;;;;;16.52;4.78;;;28.40;99.90;;;;;;5041414;28;20221;-74
2022/05/31 11:24:47;;;;;;;20.02;4.13;;;28.40;99.90;;;;;;5055604;28;20178;-74
2022/05/31 11:27:27;;;;;;;24.58;5.15;;;28.30;99.90;;;;;;5088286;28;20588;-72
2022/05/31 11:30:16;;;;;;;16.88;4.05;;;28.30;99.90;;;;;;5082350;28;20259;-72
2022/05/31 11:33:03;;;;;;;18.45;3.83;;;28.30;99.90;;;;;;5078307;28;20194;-73
2022/05/31 11:36:27;;;;;;;16.85;3.80;;;28.30;99.90;;;;;;5081072;28;20205;-74
2022/05/31 11:39:56;;;;;;;28.90;4.63;;;28.30;99.90;;;;;;5075795;28;20187;-72
2022/05/31 11:43:03;;;;;;;18.13;5.03;;;28.20;99.90;;;;;;5062648;28;20305;-71
2022/05/31 11:46:17;;;;;;;17.25;3.58;;;28.20;99.90;;;;;;5086273;28;20194;-74
2022/05/31 11:49:07;;;;;;;17.73;4.20;;;28.20;99.90;;;;;;5050931;28;20650;-73
2022/05/31 11:52:08;;;;;;;23.33;4.63;;;28.20;99.90;;;;;;5080586;28;20645;-72
2022/05/31 11:58:16;;;;;;;18.98;4.15;;;28.20;99.90;;;;;;5084529;28;20192;-72
2022/05/31 12:01:11;;;;;;;13.73;3.70;;;28.30;99.90;;;;;;5087837;28;20182;-73
2022/05/31 12:03:52;;;;;;;23.98;4.38;;;28.10;99.90;;;;;;5070242;28;20185;-75
2022/05/31 12:07:04;;;;;;;20.67;4.85;;;27.90;99.90;;;;;;5053121;28;20189;-75
2022/05/31 12:09:50;;;;;;;17.58;4.32;;;27.80;99.90;;;;;;5052045;28;20201;-74
2022/05/31 12:12:44;;;;;;;19.40;4.05;;;27.60;99.90;;;;;;5081466;28;20243;-71
2022/05/31 12:15:21;;;;;;;18.35;4.22;;;27.60;99.90;;;;;;5052210;28;20281;-73
2022/05/31 12:18:13;;;;;;;23.33;4.50;;;27.80;99.90;;;;;;5087839;28;20209;-73
2022/05/31 12:20:59;;;;;;;22.10;4.20;;;27.80;99.90;;;;;;5085084;28;20538;-74
2022/05/31 12:23:51;;;;;;;19.40;3.78;;;28.00;99.90;;;;;;5058143;28;20190;-73
2022/05/31 12:26:45;;;;;;;19.52;4.88;;;28.10;99.90;;;;;;5072671;28;20190;-73
2022/05/31 12:29:30;;;;;;;19.70;3.83;;;28.10;99.90;;;;;;5092573;28;20497;-73
2022/05/31 12:32:35;;;;;;;17.17;4.20;;;28.20;99.90;;;;;;5063703;28;20194;-75
2022/05/31 12:35:06;;;;;;;15.50;4.03;;;28.00;99.90;;;;;;5030740;28;20184;-74
2022/05/31 12:38:01;;;;;;;16.85;4.03;;;27.90;99.90;;;;;;5009366;28;20623;-71
2022/05/31 12:40:33;;;;;;;13.38;3.97;;;27.90;99.90;;;;;;5049987;28;20196;-75
2022/05/31 12:43:12;;;;;;;15.88;3.78;;;27.80;99.90;;;;;;5085507;28;20185;-72
2022/05/31 12:45:47;;;;;;;20.10;4.30;;;27.70;99.90;;;;;;5071060;28;20189;-73
2022/05/31 12:48:25;;;;;;;23.52;4.75;;;27.80;99.90;;;;;;5083892;28;20729;-73
2022/05/31 12:51:22;;;;;;;17.85;4.28;;;27.70;99.90;;;;;;5065219;28;20192;-74
2022/05/31 12:54:18;;;;;;;21.45;4.40;;;27.50;99.90;;;;;;5072354;28;20202;-74
2022/05/31 12:56:58;;;;;;;15.45;3.88;;;27.40;99.90;;;;;;5056847;28;20245;-75
2022/05/31 12:59:47;;;;;;;15.35;3.70;;;27.30;99.90;;;;;;5066965;28;20211;-75
2022/05/31 13:02:36;;;;;;;24.67;4.60;;;27.40;99.90;;;;;;5064915;28;20182;-75
2022/05/31 13:05:46;;;;;;;16.42;3.83;;;27.40;99.90;;;;;;5067695;28;20261;-72
2022/05/31 13:08:19;;;;;;;17.67;3.58;;;27.50;99.90;;;;;;5078880;28;20213;-73
2022/05/31 13:19:34;;;;;;;14.10;4.18;;;27.40;99.90;;;;;;5057338;28;20214;-72
2022/05/31 13:22:06;;;;;;;18.67;4.20;;;27.40;99.90;;;;;;5084067;28;20229;-71
2022/05/31 13:24:44;;;;;;;21.40;4.22;;;27.50;99.90;;;;;;5082813;28;20186;-72
2022/05/31 13:27:14;;;;;;;20.05;4.18;;;27.40;99.90;;;;;;5075783;28;20192;-73
2022/05/31 13:29:40;;;;;;;22.73;4.57;;;27.40;99.90;;;;;;5048926;28;20255;-72
2022/05/31 13:32:11;;;;;;;19.65;4.03;;;27.30;99.90;;;;;;5059335;28;20244;-71
2022/05/31 13:34:46;;;;;;;18.25;4.30;;;27.30;99.90;;;;;;5045931;28;20229;-72
2022/05/31 13:37:18;;;;;;;21.67;4.25;;;27.20;99.90;;;;;;5066136;28;20229;-72
2022/05/31 13:39:48;;;;;;;13.48;3.85;;;27.20;99.90;;;;;;5050863;28;20507;-73
2022/05/31 13:42:38;;;;;;;17.45;3.60;;;27.10;99.90;;;;;;5065724;28;20717;-72
2022/05/31 13:45:12;;;;;;;19.85;4.00;;;27.10;99.90;;;;;;5086579;28;20693;-72
2022/05/31 13:47:50;;;;;;;18.42;3.67;;;27.10;99.90;;;;;;5065198;28;20183;-74
2022/05/31 13:50:25;;;;;;;15.85;4.28;;;27.10;99.90;;;;;;5047443;28;20651;-73
2022/05/31 13:52:53;;;;;;;21.10;4.72;;;27.20;99.90;;;;;;5097461;28;20197;-73
2022/05/31 13:55:29;;;;;;;15.65;3.78;;;27.10;99.90;;;;;;5064284;28;20183;-74